createdAt,value
2023-08-15T00:04:00.398Z,22.4
2023-08-15T00:09:53.987Z,22.4
2023-08-15T00:15:50.159Z,22.6
2023-08-15T00:21:42.021Z,22.6
2023-08-15T00:27:34.773Z,22.3
2023-08-15T00:33:27.566Z,22.4
2023-08-15T00:39:20.181Z,22.4
2023-08-15T00:45:17.054Z,22.5
2023-08-15T00:51:09.957Z,22.5
2023-08-15T00:57:07.562Z,22.3
2023-08-15T01:03:02.213Z,22.4
2023-08-15T01:08:57.019Z,21.9
2023-08-15T01:14:48.783Z,22
2023-08-15T01:20:42.109Z,21.9
2023-08-15T01:27:43.356Z,21.9
2023-08-15T01:33:34.724Z,21.8
2023-08-15T01:39:26.983Z,21.7
2023-08-15T01:45:20.807Z,21.9
2023-08-15T01:51:13.215Z,21.7
2023-08-15T01:57:05.503Z,21.8
2023-08-15T02:02:58.521Z,22.1
2023-08-15T02:08:51.161Z,22.2
2023-08-15T02:14:43.728Z,22.3
2023-08-15T02:20:35.972Z,21.9
2023-08-15T02:26:28.443Z,22.2
2023-08-15T02:32:20.763Z,22.2
2023-08-15T02:38:13.509Z,22.3
2023-08-15T02:44:06.473Z,21.9
2023-08-15T02:50:00.439Z,22.1
2023-08-15T02:55:53.000Z,21.9
2023-08-15T03:01:45.190Z,21.9
2023-08-15T03:07:38.936Z,21.8
2023-08-15T03:13:30.726Z,21.5
2023-08-15T03:19:23.587Z,21.1
2023-08-15T03:25:15.828Z,21.1
2023-08-15T03:31:08.264Z,21.1
2023-08-15T03:37:00.851Z,21.2
2023-08-15T03:42:53.911Z,21.3
2023-08-15T03:48:45.919Z,20.9
2023-08-15T03:54:36.505Z,20.9
2023-08-15T04:00:28.406Z,20.8
2023-08-15T04:06:19.406Z,20.7
2023-08-15T04:12:11.209Z,20.6
2023-08-15T04:18:02.725Z,20.7
2023-08-15T04:23:54.959Z,20.6
2023-08-15T04:29:47.958Z,20.8
2023-08-15T04:35:41.367Z,20.7
2023-08-15T04:41:35.381Z,20.5
2023-08-15T04:47:27.676Z,20.6
2023-08-15T04:53:20.054Z,20.5
2023-08-15T04:59:15.167Z,20.3
2023-08-15T05:05:06.812Z,20.5
2023-08-15T05:11:00.427Z,20.7
2023-08-15T05:16:52.596Z,20.3
2023-08-15T05:22:44.841Z,19.8
2023-08-15T05:28:37.706Z,20.1
2023-08-15T05:34:36.210Z,20.6
2023-08-15T05:40:29.349Z,20.6
2023-08-15T05:46:21.808Z,21.3
2023-08-15T05:52:14.548Z,21.7
2023-08-15T05:58:07.923Z,21.9
2023-08-15T06:04:01.715Z,22
2023-08-15T06:09:55.409Z,22.3
2023-08-15T06:15:48.121Z,22.1
2023-08-15T06:21:39.869Z,22
2023-08-15T06:27:32.141Z,21.9
2023-08-15T06:33:25.001Z,22
2023-08-15T06:39:17.591Z,21.6
2023-08-15T06:45:10.070Z,21.8
2023-08-15T06:51:02.519Z,22
2023-08-15T06:56:56.440Z,21.9
2023-08-15T07:02:50.407Z,21.7
2023-08-15T07:08:43.068Z,21.7
2023-08-15T07:14:35.110Z,21.9
2023-08-15T07:20:29.905Z,21.9
2023-08-15T07:26:27.122Z,22
2023-08-15T07:32:22.424Z,22.5
2023-08-15T07:38:16.028Z,22.6
2023-08-15T07:44:09.180Z,22.6
2023-08-15T07:50:03.322Z,22.9
2023-08-15T07:55:56.457Z,23.1
2023-08-15T08:01:49.867Z,23.4
2023-08-15T08:07:42.976Z,23.2
2023-08-15T08:13:35.898Z,23
2023-08-15T08:19:28.128Z,23.1
2023-08-15T08:25:21.384Z,23.2
2023-08-15T08:31:13.847Z,23.1
2023-08-15T08:37:06.973Z,23.6
2023-08-15T08:43:00.726Z,23.7
2023-08-15T08:48:53.307Z,23.9
2023-08-15T08:54:56.301Z,23.8
2023-08-15T09:00:48.092Z,23.9
2023-08-15T09:06:43.712Z,24.3
2023-08-15T09:12:36.271Z,24.2
2023-08-15T09:18:29.045Z,24
2023-08-15T09:24:19.855Z,24
2023-08-15T09:30:12.096Z,23.8
2023-08-15T09:36:04.190Z,23.3
2023-08-15T09:41:59.459Z,23.7
2023-08-15T09:47:51.732Z,23.8
2023-08-15T09:53:43.956Z,23.9
2023-08-15T09:59:36.077Z,24.2
2023-08-15T10:05:29.513Z,23.4
2023-08-15T10:11:21.969Z,23.9
2023-08-15T10:17:14.752Z,24
2023-08-15T10:23:11.122Z,24.2
2023-08-15T10:29:03.775Z,23.9
2023-08-15T10:34:56.340Z,23.4
2023-08-15T10:40:49.238Z,24
2023-08-15T10:46:40.920Z,24
2023-08-15T10:52:34.734Z,24.5
2023-08-15T10:58:27.788Z,24.4
2023-08-15T11:04:21.420Z,24.3
2023-08-15T11:10:13.484Z,24.6
2023-08-15T11:16:05.995Z,24.6
2023-08-15T11:21:58.597Z,24.5
2023-08-15T11:27:50.660Z,24.5
2023-08-15T11:33:42.934Z,24.7
2023-08-15T11:39:35.760Z,24.8
2023-08-15T11:45:28.457Z,24.4
2023-08-15T11:51:19.738Z,24.8
2023-08-15T11:57:12.057Z,24.2
2023-08-15T12:03:04.974Z,24.2
2023-08-15T12:08:58.008Z,24.8
2023-08-15T12:14:52.772Z,24.9
2023-08-15T12:20:44.397Z,25
2023-08-15T12:26:36.508Z,25.1
2023-08-15T12:32:30.139Z,25
2023-08-15T12:38:23.518Z,25.2
2023-08-15T12:44:16.572Z,25.3
2023-08-15T12:50:08.565Z,25
2023-08-15T12:57:10.089Z,25.3
2023-08-15T13:03:02.159Z,25.3
2023-08-15T13:08:54.229Z,25.2
2023-08-15T13:14:47.069Z,25.2
2023-08-15T13:20:39.067Z,25.2
2023-08-15T13:26:31.971Z,25.1
2023-08-15T13:32:27.145Z,25.2
2023-08-15T13:38:19.654Z,25.2
2023-08-15T13:44:13.177Z,25.2
2023-08-15T13:50:05.799Z,25.2
2023-08-15T13:55:59.078Z,25.2
2023-08-15T14:01:51.609Z,25.2
2023-08-15T14:07:44.779Z,25.2
2023-08-15T14:13:36.443Z,25.3
2023-08-15T14:19:28.458Z,25
2023-08-15T14:25:21.440Z,25.1
2023-08-15T14:31:17.278Z,24.6
2023-08-15T14:37:10.112Z,25
2023-08-15T14:43:01.854Z,24.9
2023-08-15T14:48:54.839Z,24.9
2023-08-15T14:54:47.761Z,24.8
2023-08-15T15:00:40.301Z,25
2023-08-15T15:06:34.696Z,25.1
2023-08-15T15:12:27.435Z,25.2
2023-08-15T15:18:20.619Z,25.3
2023-08-15T15:24:14.107Z,25.3
2023-08-15T15:30:05.645Z,25.5
2023-08-15T15:36:00.329Z,25.7
2023-08-15T15:41:53.625Z,25.9
2023-08-15T15:47:46.229Z,25.9
2023-08-15T15:53:40.564Z,25.9
2023-08-15T15:59:32.948Z,25.7
2023-08-15T16:05:25.143Z,25.5
2023-08-15T16:11:20.276Z,25.5
2023-08-15T16:17:12.583Z,25.3
2023-08-15T16:23:06.968Z,25.7
2023-08-15T16:28:59.018Z,25.5
2023-08-15T16:36:03.554Z,25.5
2023-08-15T16:41:55.483Z,25.6
2023-08-15T16:47:47.814Z,25.5
2023-08-15T16:53:40.277Z,25.6
2023-08-15T16:59:34.003Z,25.7
2023-08-15T17:05:25.547Z,25.6
2023-08-15T17:11:18.029Z,25.6
2023-08-15T17:17:10.738Z,25.5
2023-08-15T17:23:02.967Z,25.4
2023-08-15T17:29:07.314Z,25.4
2023-08-15T17:35:42.291Z,25.5
2023-08-15T17:41:34.654Z,25.3
2023-08-15T17:47:32.861Z,25.1
2023-08-15T17:53:26.194Z,25.3
2023-08-15T17:59:18.010Z,25.3
2023-08-15T18:05:10.350Z,25.2
2023-08-15T18:11:01.664Z,24.9
2023-08-15T18:16:55.073Z,25.1
2023-08-15T18:22:48.276Z,25
2023-08-15T18:28:40.403Z,24.5
2023-08-15T18:34:32.099Z,24.8
2023-08-15T18:40:24.432Z,24.8
2023-08-15T18:46:16.126Z,24.7
2023-08-15T18:52:08.352Z,24.7
2023-08-15T18:58:00.265Z,24.6
2023-08-15T19:03:52.530Z,24.6
2023-08-15T19:09:44.475Z,24.1
2023-08-15T19:15:36.438Z,24.2
2023-08-15T19:21:29.135Z,24
2023-08-15T19:27:21.744Z,23.8
2023-08-15T19:33:14.511Z,23.5
2023-08-15T19:39:07.064Z,23.7
2023-08-15T19:44:59.381Z,23.6
2023-08-15T19:50:51.060Z,23.6
2023-08-15T19:56:42.558Z,23.5
2023-08-15T20:02:34.570Z,23.2
2023-08-15T20:08:26.860Z,23.3
2023-08-15T20:14:18.779Z,22.8
2023-08-15T20:20:18.797Z,23
2023-08-15T20:26:09.898Z,22.9
2023-08-15T20:32:01.633Z,22.6
2023-08-15T20:37:57.551Z,22.5
2023-08-15T20:43:49.264Z,22.5
2023-08-15T20:49:41.879Z,22.7
2023-08-15T20:55:34.158Z,22.5
2023-08-15T21:01:26.053Z,22.6
2023-08-15T21:07:18.340Z,22.7
2023-08-15T21:13:11.926Z,22.7
2023-08-15T21:19:04.164Z,22.7
2023-08-15T21:24:56.280Z,22.5
2023-08-15T21:30:48.989Z,22.2
2023-08-15T21:36:41.734Z,22.4
2023-08-15T21:42:32.689Z,22.2
2023-08-15T21:48:25.864Z,22.5
2023-08-15T21:54:18.995Z,22.2
2023-08-15T22:00:11.030Z,22.5
2023-08-15T22:06:03.035Z,22.2
2023-08-15T22:11:54.721Z,21.8
2023-08-15T22:17:48.916Z,21.8
2023-08-15T22:24:06.881Z,21.8
2023-08-15T22:29:59.510Z,22
2023-08-15T22:35:51.684Z,22
2023-08-15T22:41:44.940Z,21.8
2023-08-15T22:47:37.053Z,21.5
2023-08-15T22:53:30.377Z,21.6
2023-08-15T22:59:22.667Z,21.4
2023-08-15T23:05:15.045Z,21.9
2023-08-15T23:11:07.463Z,21.6
2023-08-15T23:16:59.830Z,21.7
2023-08-15T23:22:52.612Z,21.9
2023-08-15T23:28:44.972Z,22
2023-08-15T23:34:37.478Z,21.6
2023-08-15T23:40:30.051Z,21.9
2023-08-15T23:46:20.600Z,21.9
2023-08-15T23:52:12.108Z,21.1
2023-08-15T23:58:05.077Z,21.4
